Hauptseite
METAR-TAF:

METAR-TAF

Flughäfen :

Flughafen Lille

Lille, Frankreich

Breite: 50-34N, Länge: 003-06E, Höhe: 48 m

Beobachtung

Neuester Wetterbericht von vor 23 Minuten, um 04:00 UTC
Wind 3 kt aus Ost/Südost
Temperatur 12°C
Luftfeuchtigkeit 94%
Luftdruck 1026 hPa
Sichtweite 10 km oder mehr
keine Wolken unter 1500 m und keine Kumulonimbus oder Gewitterwolken

METAR: LFQQ 130400Z AUTO 12003KT CAVOK 12/11 Q1026 TEMPO 2000 BR BECMG 24010KT

Zeit: 06:23 (04:23 UTC)

Prognose

Neuester Wetterbericht von vor 5 Stunden und 23 Minuten, um 23:00 UTC
Gültige Prognose vom 13 um 00 UTC bis 14 um 06 UTC
Wind 10 kt aus West/Südwest
Sichtweite 10 km oder mehr
keine Wolken unter 1500 m und keine Kumulonimbus oder Gewitterwolken
Wahrscheinlichkeit 30%
vom 13 um 02 UTC bis 13 um 06 UTC
Sichtweite: 2000 m
feuchter Dunst,

TAF: LFQQ 122300Z 1300/1406 24010KT CAVOK PROB30 1302/1306 2000 BR

Wetterbeobachtungen und Prognosen von mehr als 4000 Flughäfen (METAR und TAF Bericht).

Die verfügbaren Stationen werden durch gelbe und rote Markierungen auf der Karte dargestellt.

Führen Sie die Maus auf sie, um den Namen der Station zu sehen.

Darauf klicken, um die Beobachtung von Wetterbeobachtungen und Prognosen zu sehen.

Um die Karte zu ändern : klicken Sie auf den grünen Tasten mit einem schwarzen Kreuz Zum Vergrößern, auf den grünen Button mit einem Gedankenstrich zu verkleinern, oder auf die grünen Pfeile für benachbarte Karten.


METAR-TAF: